createdAt,value
2018-10-11T00:00:08.938Z,27.88
2018-10-11T00:00:48.558Z,27.89
2018-10-11T00:01:27.848Z,27.90
2018-10-11T00:02:06.105Z,27.92
2018-10-11T00:02:45.326Z,27.93
2018-10-11T00:03:25.214Z,27.95
2018-10-11T00:04:03.063Z,27.96
2018-10-11T00:04:41.148Z,27.98
2018-10-11T00:05:18.993Z,27.99
2018-10-11T00:05:58.803Z,28.00
2018-10-11T00:06:37.688Z,28.01
2018-10-11T00:07:15.633Z,28.02
2018-10-11T00:07:53.484Z,28.02
2018-10-11T00:08:31.292Z,28.04
2018-10-11T00:09:11.464Z,28.06
2018-10-11T00:09:50.460Z,28.06
2018-10-11T00:10:28.673Z,28.07
2018-10-11T00:11:06.515Z,28.10
2018-10-11T00:11:45.958Z,28.14
2018-10-11T00:12:25.653Z,28.16
2018-10-11T00:13:04.918Z,28.21
2018-10-11T00:13:43.250Z,28.24
2018-10-11T00:14:22.199Z,28.28
2018-10-11T00:15:00.117Z,28.31
2018-10-11T00:15:39.350Z,28.36
2018-10-11T00:16:17.181Z,28.40
2018-10-11T00:16:55.052Z,28.40
2018-10-11T00:17:32.899Z,28.49
2018-10-11T00:18:10.803Z,28.54
2018-10-11T00:18:48.669Z,28.53
2018-10-11T00:19:26.565Z,28.63
2018-10-11T00:20:04.533Z,28.66
2018-10-11T00:20:42.533Z,28.70
2018-10-11T00:21:20.344Z,28.73
2018-10-11T00:21:58.213Z,28.77
2018-10-11T00:22:36.214Z,28.81
2018-10-11T00:23:14.152Z,28.86
2018-10-11T00:23:52.368Z,28.90
2018-10-11T00:24:30.284Z,28.93
2018-10-11T00:25:08.261Z,28.98
2018-10-11T00:25:46.253Z,29.03
2018-10-11T00:26:24.229Z,29.07
2018-10-11T00:27:02.126Z,29.09
2018-10-11T00:27:39.984Z,29.12
2018-10-11T00:28:17.921Z,29.15
2018-10-11T00:28:55.841Z,29.16
2018-10-11T00:29:33.800Z,29.23
2018-10-11T00:30:11.872Z,29.27
2018-10-11T00:30:49.926Z,29.33
2018-10-11T00:31:27.953Z,29.37
2018-10-11T00:32:05.877Z,29.41
2018-10-11T00:32:44.053Z,29.45
2018-10-11T00:33:21.917Z,29.50
2018-10-11T00:33:59.764Z,29.53
2018-10-11T00:34:37.626Z,29.59
2018-10-11T00:35:15.793Z,29.63
2018-10-11T00:35:54.791Z,29.66
2018-10-11T00:36:32.674Z,29.68
2018-10-11T00:37:10.813Z,29.72
2018-10-11T00:37:48.709Z,29.76
2018-10-11T00:38:26.575Z,29.78
2018-10-11T00:39:04.789Z,29.79
2018-10-11T00:39:42.946Z,29.82
2018-10-11T00:40:20.829Z,29.84
2018-10-11T00:40:58.769Z,29.90
2018-10-11T00:41:36.738Z,29.91
2018-10-11T00:42:15.868Z,29.95
2018-10-11T00:42:53.718Z,29.97
2018-10-11T00:43:31.606Z,29.99
2018-10-11T00:44:09.674Z,29.98
2018-10-11T00:44:48.097Z,30.00
2018-10-11T00:45:26.115Z,30.09
2018-10-11T00:46:04.346Z,30.09
2018-10-11T00:46:42.286Z,30.11
2018-10-11T00:47:20.190Z,30.14
2018-10-11T00:47:58.045Z,30.14
2018-10-11T00:48:35.964Z,30.18
2018-10-11T00:49:14.692Z,30.20
2018-10-11T00:49:52.652Z,30.22
2018-10-11T00:50:30.528Z,30.21
2018-10-11T00:51:08.453Z,30.26
2018-10-11T00:51:46.315Z,30.25
2018-10-11T00:52:24.458Z,30.30
2018-10-11T00:53:02.534Z,30.31
2018-10-11T00:53:40.481Z,30.36
2018-10-11T00:54:18.526Z,30.41
2018-10-11T00:54:56.562Z,30.44
2018-10-11T00:55:34.490Z,30.48
2018-10-11T00:56:12.463Z,30.50
2018-10-11T00:56:50.514Z,30.54
2018-10-11T00:57:29.137Z,30.57
2018-10-11T00:58:07.528Z,30.60
2018-10-11T00:58:45.870Z,30.60
2018-10-11T00:59:24.234Z,30.64
2018-10-11T01:00:03.244Z,30.68
2018-10-11T01:00:41.694Z,30.72
2018-10-11T01:01:20.451Z,30.77
2018-10-11T01:01:59.162Z,30.75
2018-10-11T01:02:38.492Z,30.84
2018-10-11T01:03:17.195Z,30.82
2018-10-11T01:03:55.608Z,30.90
2018-10-11T01:04:34.263Z,30.92
2018-10-11T01:05:12.931Z,30.94
2018-10-11T01:05:51.719Z,30.95
2018-10-11T01:06:30.831Z,30.98
2018-10-11T01:07:09.330Z,31.01
2018-10-11T01:07:48.371Z,31.03
2018-10-11T01:08:27.366Z,31.04
2018-10-11T01:09:06.742Z,31.06
2018-10-11T01:09:45.183Z,31.07
2018-10-11T01:10:23.992Z,31.11
2018-10-11T01:11:02.521Z,31.15
2018-10-11T01:11:41.453Z,31.15
2018-10-11T01:12:20.122Z,31.18
2018-10-11T01:12:58.817Z,31.17
2018-10-11T01:13:37.643Z,31.21
2018-10-11T01:17:17.709Z,31.32
2018-10-11T01:17:56.329Z,31.38
2018-10-11T01:18:35.238Z,31.41
2018-10-11T01:19:14.048Z,31.43
2018-10-11T01:19:52.764Z,31.47
2018-10-11T01:20:31.332Z,31.50
2018-10-11T01:21:10.663Z,31.54
2018-10-11T01:21:48.994Z,31.57
2018-10-11T01:22:27.671Z,31.60
2018-10-11T01:23:06.160Z,31.63
2018-10-11T01:23:44.607Z,31.65
2018-10-11T01:24:22.933Z,31.68
2018-10-11T01:25:01.779Z,31.74
2018-10-11T01:25:40.273Z,31.76
2018-10-11T01:26:18.677Z,31.81
2018-10-11T01:26:56.897Z,31.85
2018-10-11T01:27:35.269Z,31.87
2018-10-11T01:28:14.318Z,31.93
2018-10-11T01:28:52.258Z,31.96
2018-10-11T01:29:30.244Z,32.01
2018-10-11T01:30:08.907Z,32.05
2018-10-11T01:30:51.014Z,32.08
2018-10-11T01:31:29.510Z,32.12
2018-10-11T01:32:07.426Z,32.15
2018-10-11T01:32:45.473Z,32.18
2018-10-11T01:33:23.545Z,32.21
2018-10-11T01:34:01.860Z,32.22
2018-10-11T01:34:39.805Z,32.20
2018-10-11T01:35:17.709Z,32.24
2018-10-11T01:35:55.633Z,32.26
2018-10-11T01:36:33.548Z,32.28
2018-10-11T01:37:11.689Z,32.32
2018-10-11T01:37:49.760Z,32.34
2018-10-11T01:38:28.132Z,32.35
2018-10-11T01:39:07.049Z,32.37
2018-10-11T01:39:45.168Z,32.41
2018-10-11T01:40:23.078Z,32.44
2018-10-11T01:41:01.079Z,32.50
2018-10-11T01:41:39.352Z,32.52
2018-10-11T01:42:17.382Z,32.57
2018-10-11T01:43:04.997Z,32.60
2018-10-11T01:43:43.522Z,32.68
2018-10-11T01:44:21.473Z,32.72
2018-10-11T01:44:59.546Z,32.74
2018-10-11T01:45:37.818Z,32.77
2018-10-11T01:46:16.674Z,32.77
2018-10-11T01:46:54.492Z,32.81
2018-10-11T01:47:32.389Z,32.85
2018-10-11T01:48:10.505Z,32.88
2018-10-11T01:48:48.404Z,32.91
2018-10-11T01:49:26.308Z,32.94
2018-10-11T01:50:04.139Z,32.97
2018-10-11T01:50:41.985Z,33.00
2018-10-11T01:51:20.725Z,33.06
2018-10-11T01:51:58.689Z,33.08
2018-10-11T01:52:36.738Z,33.12
2018-10-11T01:53:14.896Z,33.16
2018-10-11T01:53:53.143Z,33.23
2018-10-11T01:54:31.112Z,33.23
2018-10-11T01:55:09.680Z,33.28
2018-10-11T01:55:47.719Z,33.28
2018-10-11T01:56:25.742Z,33.30
2018-10-11T01:57:03.604Z,33.34
2018-10-11T01:57:41.484Z,33.33
2018-10-11T01:58:19.441Z,33.37
2018-10-11T01:58:57.350Z,33.36
2018-10-11T01:59:35.326Z,33.37
2018-10-11T02:00:13.285Z,33.40
2018-10-11T02:00:51.384Z,33.39
2018-10-11T02:01:29.273Z,33.39
2018-10-11T02:02:07.243Z,33.40
2018-10-11T02:02:45.173Z,33.41
2018-10-11T02:03:23.517Z,33.44
2018-10-11T02:04:02.992Z,33.46
2018-10-11T02:04:41.168Z,33.50
2018-10-11T02:05:19.237Z,33.52
2018-10-11T02:05:57.179Z,33.54
2018-10-11T02:06:35.142Z,33.56
2018-10-11T02:07:13.073Z,33.56
2018-10-11T02:07:51.065Z,33.60
2018-10-11T02:08:28.989Z,33.62
2018-10-11T02:09:06.898Z,33.58
2018-10-11T02:09:45.049Z,33.64
2018-10-11T02:10:22.955Z,33.63
2018-10-11T02:11:00.851Z,33.65
2018-10-11T02:11:38.883Z,33.67
2018-10-11T02:12:16.749Z,33.68
2018-10-11T02:12:54.881Z,33.71
2018-10-11T02:13:32.789Z,33.70
2018-10-11T02:14:10.756Z,33.72
2018-10-11T02:14:48.698Z,33.71
2018-10-11T02:15:27.107Z,33.68
2018-10-11T02:16:05.206Z,33.68
2018-10-11T02:16:43.363Z,33.67
2018-10-11T02:17:21.233Z,33.69
2018-10-11T02:17:59.896Z,33.69
2018-10-11T02:18:38.105Z,33.71
2018-10-11T02:19:16.595Z,33.57
2018-10-11T02:19:54.559Z,33.43
2018-10-11T02:20:32.537Z,33.30
2018-10-11T02:21:11.101Z,33.20
2018-10-11T02:21:48.970Z,33.04
2018-10-11T02:22:27.009Z,32.93
2018-10-11T02:23:04.995Z,32.89
2018-10-11T02:23:43.033Z,32.81
2018-10-11T02:24:20.857Z,32.70
2018-10-11T02:24:58.905Z,32.65
2018-10-11T02:25:36.756Z,32.63
2018-10-11T02:26:14.862Z,32.54
2018-10-11T02:26:52.925Z,32.49
2018-10-11T02:27:30.780Z,32.41
2018-10-11T02:28:08.996Z,32.38
2018-10-11T02:28:46.981Z,32.33
2018-10-11T02:29:25.819Z,32.28
2018-10-11T02:30:03.791Z,32.25
2018-10-11T02:30:41.715Z,32.19
2018-10-11T02:31:19.704Z,32.18
2018-10-11T02:31:57.688Z,32.17
2018-10-11T02:32:35.603Z,32.14
2018-10-11T02:33:13.755Z,32.10
2018-10-11T02:33:51.721Z,32.08
2018-10-11T02:34:29.803Z,32.06
2018-10-11T02:35:07.960Z,32.03
2018-10-11T02:35:45.891Z,32.02
2018-10-11T02:36:25.154Z,32.03
2018-10-11T02:37:03.026Z,31.92
2018-10-11T02:37:41.061Z,31.85
2018-10-11T02:38:18.974Z,31.83
2018-10-11T02:38:56.821Z,31.80
2018-10-11T02:39:34.778Z,31.80
2018-10-11T02:40:12.799Z,31.78
2018-10-11T02:40:50.668Z,31.75
2018-10-11T02:41:28.872Z,31.73
2018-10-11T02:42:07.521Z,31.74
2018-10-11T02:42:45.495Z,31.70
2018-10-11T02:43:23.422Z,31.67
2018-10-11T02:44:01.552Z,31.68
2018-10-11T02:44:39.431Z,31.66
2018-10-11T02:45:17.342Z,31.64
2018-10-11T02:45:55.262Z,31.59
2018-10-11T02:46:33.061Z,31.60
2018-10-11T02:47:11.355Z,31.59
2018-10-11T02:47:49.258Z,31.57
2018-10-11T02:48:27.222Z,31.61
2018-10-11T02:49:05.276Z,31.58
2018-10-11T02:49:43.772Z,31.59
2018-10-11T02:50:21.696Z,31.58
2018-10-11T02:50:59.700Z,31.62
2018-10-11T02:51:37.892Z,31.60
2018-10-11T02:52:16.670Z,31.59
2018-10-11T02:52:54.833Z,31.54
2018-10-11T02:53:32.913Z,31.52
2018-10-11T02:54:12.077Z,31.48
2018-10-11T02:54:49.938Z,31.43
2018-10-11T02:55:29.761Z,31.48
2018-10-11T02:56:09.141Z,31.48
2018-10-11T02:56:47.346Z,31.50
2018-10-11T02:57:34.057Z,31.46
2018-10-11T02:58:20.956Z,31.43
2018-10-11T02:59:23.095Z,31.41
2018-10-11T03:00:02.499Z,31.41
2018-10-11T03:00:40.935Z,31.38
2018-10-11T03:01:19.162Z,31.37
2018-10-11T03:01:57.729Z,31.39
2018-10-11T03:02:36.098Z,31.41
2018-10-11T03:03:17.625Z,31.38
2018-10-11T03:04:00.941Z,31.40
2018-10-11T03:04:39.873Z,31.45
2018-10-11T03:05:21.046Z,31.44
2018-10-11T03:06:03.652Z,31.48
2018-10-11T03:06:42.106Z,31.50
2018-10-11T03:07:20.308Z,31.50
2018-10-11T03:07:58.429Z,31.50
2018-10-11T03:08:36.959Z,31.52
2018-10-11T03:09:15.204Z,31.55
2018-10-11T03:09:53.441Z,31.57
2018-10-11T03:10:31.444Z,31.60
2018-10-11T03:11:09.397Z,31.61
2018-10-11T03:11:47.488Z,31.62
2018-10-11T03:12:25.428Z,31.62
2018-10-11T03:13:03.252Z,31.62
2018-10-11T03:13:41.141Z,31.62
2018-10-11T03:14:19.023Z,31.65
2018-10-11T03:14:57.242Z,31.69
2018-10-11T03:15:35.084Z,31.71
2018-10-11T03:16:13.020Z,31.74
2018-10-11T03:16:50.969Z,31.81
2018-10-11T03:17:29.061Z,31.90
2018-10-11T03:18:07.142Z,31.96
2018-10-11T03:18:45.089Z,31.97
2018-10-11T03:19:23.350Z,31.98
2018-10-11T03:20:01.218Z,31.99
2018-10-11T03:20:39.089Z,32.04
2018-10-11T03:21:17.063Z,32.14
2018-10-11T03:21:54.989Z,32.17
2018-10-11T03:22:34.277Z,32.25
2018-10-11T03:23:13.502Z,32.26
2018-10-11T03:23:51.764Z,32.29
2018-10-11T03:24:29.805Z,32.32
2018-10-11T03:25:07.981Z,32.34
2018-10-11T03:25:46.987Z,32.35
2018-10-11T03:26:25.063Z,32.34
2018-10-11T03:27:03.291Z,32.34
2018-10-11T03:27:41.167Z,32.31
2018-10-11T03:28:19.914Z,32.30
2018-10-11T03:28:57.758Z,32.28
2018-10-11T03:29:35.628Z,32.29
2018-10-11T03:30:13.628Z,32.29
2018-10-11T03:30:51.711Z,32.37
2018-10-11T03:31:30.076Z,32.50
2018-10-11T03:32:08.061Z,32.54
2018-10-11T03:32:46.168Z,32.55
2018-10-11T03:33:24.179Z,32.58
2018-10-11T03:34:02.097Z,32.59
2018-10-11T03:34:40.103Z,32.59
2018-10-11T03:35:17.981Z,32.59
2018-10-11T03:35:55.921Z,32.59
2018-10-11T03:36:33.850Z,32.63
2018-10-11T03:37:11.741Z,32.70
2018-10-11T03:37:49.492Z,32.73
2018-10-11T03:38:27.886Z,32.89
2018-10-11T03:39:48.895Z,32.99
2018-10-11T03:40:26.883Z,32.93
2018-10-11T03:41:04.749Z,32.93
2018-10-11T03:41:42.596Z,32.91
2018-10-11T03:42:20.492Z,32.99
2018-10-11T03:42:59.354Z,33.04
2018-10-11T03:43:37.272Z,33.15
2018-10-11T03:44:16.518Z,33.26
2018-10-11T03:44:55.937Z,33.35
2018-10-11T03:45:33.982Z,33.42
2018-10-11T03:46:11.976Z,33.53
2018-10-11T03:46:49.957Z,33.62
2018-10-11T03:47:28.152Z,33.72
2018-10-11T03:48:06.612Z,33.79
2018-10-11T03:48:44.508Z,33.86
2018-10-11T03:49:22.447Z,33.91
2018-10-11T03:50:00.633Z,33.98
2018-10-11T03:50:38.425Z,34.00
2018-10-11T03:51:16.482Z,34.09
2018-10-11T03:51:54.390Z,34.08
2018-10-11T03:52:35.970Z,34.01
2018-10-11T03:53:13.937Z,34.08
2018-10-11T03:53:51.892Z,34.10
2018-10-11T03:54:30.172Z,34.02
2018-10-11T03:55:08.184Z,34.03
2018-10-11T03:55:46.014Z,34.20
2018-10-11T03:56:24.501Z,34.28
2018-10-11T03:57:02.326Z,34.28
2018-10-11T03:57:40.775Z,34.20
2018-10-11T03:58:18.733Z,34.22
2018-10-11T03:58:57.286Z,34.18
2018-10-11T03:59:35.145Z,34.13
2018-10-11T04:00:13.085Z,34.20
2018-10-11T04:00:50.991Z,34.18
2018-10-11T04:01:29.073Z,34.17
2018-10-11T04:02:07.108Z,34.18
2018-10-11T04:02:48.752Z,34.17
2018-10-11T04:03:26.775Z,34.17
2018-10-11T04:04:04.648Z,34.14
2018-10-11T04:04:42.581Z,34.19
2018-10-11T04:05:20.509Z,34.17
2018-10-11T04:05:58.276Z,34.14
2018-10-11T04:06:36.416Z,34.14
2018-10-11T04:07:14.727Z,34.14
2018-10-11T04:07:52.673Z,34.09
2018-10-11T04:08:30.579Z,34.06
2018-10-11T04:09:09.431Z,34.04
2018-10-11T04:09:47.404Z,34.00
2018-10-11T04:10:25.258Z,33.92
2018-10-11T04:11:03.659Z,33.89
2018-10-11T04:11:41.564Z,33.84
2018-10-11T04:12:19.555Z,33.78
2018-10-11T04:12:57.486Z,33.74
2018-10-11T04:13:35.359Z,33.71
2018-10-11T04:14:13.285Z,33.67
2018-10-11T04:14:52.990Z,33.63
2018-10-11T04:15:31.142Z,33.59
2018-10-11T04:16:09.121Z,33.56
2018-10-11T04:16:47.197Z,33.53
2018-10-11T04:17:25.145Z,33.52
2018-10-11T04:18:03.006Z,33.51
2018-10-11T04:18:41.044Z,33.51
2018-10-11T04:19:19.429Z,33.51
2018-10-11T04:19:57.239Z,33.55
2018-10-11T04:20:35.056Z,33.63
2018-10-11T04:21:13.617Z,33.64
2018-10-11T04:21:51.695Z,33.67
2018-10-11T04:22:29.646Z,33.70
2018-10-11T04:23:07.780Z,33.79
2018-10-11T04:23:45.656Z,33.96
2018-10-11T04:24:23.519Z,34.06
2018-10-11T04:25:01.593Z,34.14
2018-10-11T04:25:39.631Z,34.20
2018-10-11T04:26:17.832Z,34.28
2018-10-11T04:26:55.667Z,34.30
2018-10-11T04:27:33.478Z,34.31
2018-10-11T04:28:11.568Z,34.35
2018-10-11T04:28:49.541Z,34.39
2018-10-11T04:29:27.908Z,34.47
2018-10-11T04:30:05.779Z,34.52
2018-10-11T04:30:44.351Z,34.53
2018-10-11T04:31:22.246Z,34.56
2018-10-11T04:32:00.256Z,34.59
2018-10-11T04:32:38.223Z,34.60
2018-10-11T04:33:16.028Z,34.59
2018-10-11T04:33:54.069Z,34.63
2018-10-11T04:34:31.983Z,34.57
2018-10-11T04:35:10.026Z,34.58
2018-10-11T04:35:47.822Z,34.60
2018-10-11T04:36:25.756Z,34.60
2018-10-11T04:37:03.712Z,34.61
2018-10-11T04:37:41.950Z,34.62
2018-10-11T04:38:19.977Z,34.65
2018-10-11T04:38:58.102Z,34.68
2018-10-11T04:39:36.002Z,34.70
2018-10-11T04:40:14.802Z,34.73
2018-10-11T04:40:52.749Z,34.74
2018-10-11T04:43:09.356Z,34.81
2018-10-11T04:43:47.314Z,34.81
2018-10-11T04:44:25.633Z,34.78
2018-10-11T04:45:03.561Z,34.79
2018-10-11T04:45:41.689Z,34.76
2018-10-11T04:46:19.641Z,34.69
2018-10-11T04:46:57.567Z,34.61
2018-10-11T04:47:35.484Z,34.53
2018-10-11T04:48:13.725Z,34.48
2018-10-11T04:48:51.604Z,34.45
2018-10-11T04:49:29.623Z,34.40
2018-10-11T04:50:07.518Z,34.38
2018-10-11T04:50:46.443Z,34.35
2018-10-11T04:51:24.384Z,34.35
2018-10-11T04:52:02.243Z,34.41
2018-10-11T04:52:40.181Z,34.42
2018-10-11T04:53:18.248Z,34.45
2018-10-11T04:53:57.103Z,34.45
2018-10-11T04:54:35.083Z,34.48
2018-10-11T04:55:13.038Z,34.57
2018-10-11T04:55:50.884Z,34.62
2018-10-11T04:56:30.667Z,34.70
2018-10-11T04:57:08.583Z,34.80
2018-10-11T04:57:46.680Z,34.86
2018-10-11T04:58:24.481Z,34.93
2018-10-11T04:59:02.466Z,34.99
2018-10-11T04:59:40.514Z,35.07
2018-10-11T05:00:18.589Z,35.12
2018-10-11T05:00:57.365Z,35.16
2018-10-11T05:01:35.393Z,35.21
2018-10-11T05:02:13.341Z,35.27
2018-10-11T05:02:51.273Z,35.24
2018-10-11T05:03:33.073Z,35.24
2018-10-11T05:04:11.488Z,35.32
2018-10-11T05:04:49.354Z,35.35
2018-10-11T05:05:27.436Z,35.43
2018-10-11T05:06:05.499Z,35.37
2018-10-11T05:06:43.545Z,35.25
2018-10-11T05:07:21.541Z,35.18
2018-10-11T05:07:59.588Z,35.14
2018-10-11T05:08:38.152Z,35.25
2018-10-11T05:09:16.327Z,35.23
2018-10-11T05:09:54.234Z,35.22
2018-10-11T05:10:32.176Z,35.32
2018-10-11T05:11:10.195Z,35.38
2018-10-11T05:11:48.299Z,35.44
2018-10-11T05:12:26.303Z,35.43
2018-10-11T05:13:04.808Z,35.47
2018-10-11T05:13:50.736Z,35.46
2018-10-11T05:14:28.804Z,35.47
2018-10-11T05:15:07.105Z,35.47
2018-10-11T05:15:46.545Z,35.52
2018-10-11T05:16:24.561Z,35.56
2018-10-11T05:17:03.076Z,35.57
2018-10-11T05:17:41.114Z,35.60
2018-10-11T05:18:23.002Z,35.62
2018-10-11T05:19:04.797Z,35.67
2018-10-11T05:19:43.430Z,35.72
2018-10-11T05:20:21.307Z,35.73
2018-10-11T05:20:59.138Z,35.78
2018-10-11T05:21:37.171Z,35.79
2018-10-11T05:25:16.781Z,35.78
2018-10-11T05:25:54.753Z,35.79
2018-10-11T05:26:32.911Z,35.73
2018-10-11T05:27:11.001Z,35.65
2018-10-11T05:27:49.075Z,35.59
2018-10-11T05:28:27.312Z,35.60
2018-10-11T05:29:05.151Z,35.55
2018-10-11T05:29:43.262Z,35.53
2018-10-11T05:30:21.263Z,35.47
2018-10-11T05:30:59.288Z,35.53
2018-10-11T05:31:37.356Z,35.55
2018-10-11T05:32:15.734Z,35.59
2018-10-11T05:32:54.796Z,35.63
2018-10-11T05:33:33.321Z,35.70
2018-10-11T05:34:11.632Z,35.74
2018-10-11T05:34:49.466Z,35.80
2018-10-11T05:35:27.350Z,35.81
2018-10-11T05:36:05.245Z,35.84
2018-10-11T05:36:43.211Z,35.84
2018-10-11T05:37:21.039Z,35.79
2018-10-11T05:37:59.190Z,35.78
2018-10-11T05:38:37.139Z,35.78
2018-10-11T05:39:15.047Z,35.74
2018-10-11T05:39:53.037Z,35.76
2018-10-11T05:40:31.049Z,35.80
2018-10-11T05:41:09.456Z,35.82
2018-10-11T05:41:47.568Z,35.87
2018-10-11T05:42:25.850Z,35.92
2018-10-11T05:43:04.377Z,35.97
2018-10-11T05:43:42.742Z,35.94
2018-10-11T05:44:21.321Z,35.98
2018-10-11T05:45:09.853Z,35.99
2018-10-11T05:45:53.968Z,35.92
2018-10-11T05:46:34.472Z,35.84
2018-10-11T05:47:12.599Z,35.79
2018-10-11T05:47:50.818Z,35.74
2018-10-11T05:48:29.477Z,35.65
2018-10-11T05:49:08.898Z,35.59
2018-10-11T05:49:47.012Z,35.50
2018-10-11T05:50:25.295Z,35.48
2018-10-11T05:51:04.157Z,35.39
2018-10-11T05:51:42.116Z,35.39
2018-10-11T05:52:20.369Z,35.34
2018-10-11T05:52:58.496Z,35.34
2018-10-11T05:53:36.934Z,35.31
2018-10-11T05:54:15.272Z,35.24
2018-10-11T05:54:53.217Z,35.18
2018-10-11T05:55:31.367Z,35.15
2018-10-11T05:56:09.515Z,35.13
2018-10-11T05:56:49.076Z,35.07
2018-10-11T05:57:27.296Z,35.10
2018-10-11T05:58:05.182Z,35.06
2018-10-11T05:58:43.465Z,34.96
2018-10-11T05:59:21.685Z,34.94
2018-10-11T05:59:59.799Z,34.89
2018-10-11T06:00:39.125Z,34.79
2018-10-11T06:01:17.187Z,34.75
2018-10-11T06:01:55.025Z,34.68
2018-10-11T06:02:33.147Z,34.64
2018-10-11T06:03:11.309Z,34.57
2018-10-11T06:03:50.000Z,34.56
2018-10-11T06:04:28.043Z,34.53
2018-10-11T06:05:06.070Z,34.51
2018-10-11T06:05:43.970Z,34.49
2018-10-11T06:06:21.949Z,34.49
2018-10-11T06:07:00.193Z,34.47
2018-10-11T06:07:38.248Z,34.45
2018-10-11T06:08:18.225Z,34.43
2018-10-11T06:08:57.029Z,34.43
2018-10-11T06:09:35.099Z,34.41
2018-10-11T06:10:13.092Z,34.39
2018-10-11T06:10:51.345Z,34.36
2018-10-11T06:11:29.992Z,34.28
2018-10-11T06:12:08.006Z,34.25
2018-10-11T06:12:46.396Z,34.21
2018-10-11T06:13:25.131Z,34.19
2018-10-11T06:14:03.100Z,34.17
2018-10-11T06:14:41.014Z,34.12
2018-10-11T06:15:18.944Z,34.12
2018-10-11T06:15:56.939Z,34.13
2018-10-11T06:16:34.794Z,34.09
2018-10-11T06:17:12.684Z,34.05
2018-10-11T06:17:50.610Z,34.08
2018-10-11T06:18:29.114Z,34.04
2018-10-11T06:19:07.102Z,34.04
2018-10-11T06:19:45.224Z,34.03
2018-10-11T06:20:23.177Z,34.00
2018-10-11T06:21:01.144Z,34.02
2018-10-11T06:21:39.285Z,34.03
2018-10-11T06:22:17.432Z,34.06
2018-10-11T06:22:55.755Z,34.10
2018-10-11T06:23:33.813Z,34.13
2018-10-11T06:24:12.027Z,34.16
2018-10-11T06:24:50.068Z,34.14
2018-10-11T06:25:28.068Z,34.19
2018-10-11T06:26:06.490Z,34.24
2018-10-11T06:26:44.682Z,34.24
2018-10-11T06:27:22.633Z,34.29
2018-10-11T06:28:00.828Z,34.30
2018-10-11T06:28:38.911Z,34.30
2018-10-11T06:29:16.769Z,34.31
2018-10-11T06:30:38.417Z,34.45
2018-10-11T06:31:16.697Z,34.55
2018-10-11T06:31:54.768Z,34.62
2018-10-11T06:32:32.961Z,34.63
2018-10-11T06:33:10.853Z,34.59
2018-10-11T06:33:48.860Z,34.60
2018-10-11T06:34:26.756Z,34.64
2018-10-11T06:35:05.185Z,34.65
2018-10-11T06:35:43.255Z,34.69
2018-10-11T06:36:21.378Z,34.73
2018-10-11T06:37:00.201Z,34.78
2018-10-11T06:37:38.188Z,34.78
2018-10-11T06:38:16.526Z,34.74
2018-10-11T06:38:55.102Z,34.73
2018-10-11T06:39:33.209Z,34.69
2018-10-11T06:40:11.349Z,34.66
2018-10-11T06:40:49.593Z,34.63
2018-10-11T06:41:27.801Z,34.59
2018-10-11T06:42:06.011Z,34.54
2018-10-11T06:42:44.498Z,34.50
2018-10-11T06:43:22.930Z,34.43
2018-10-11T06:44:01.285Z,34.39
2018-10-11T06:44:39.165Z,34.35
2018-10-11T06:45:18.050Z,34.31
2018-10-11T06:45:56.242Z,34.24
2018-10-11T06:46:34.272Z,34.19
2018-10-11T06:47:12.257Z,34.17
2018-10-11T06:47:53.411Z,34.10
2018-10-11T06:48:31.541Z,34.06
2018-10-11T06:49:09.712Z,34.04
2018-10-11T06:49:47.718Z,34.03
2018-10-11T06:50:25.785Z,34.02
2018-10-11T06:51:03.691Z,33.98
2018-10-11T06:51:41.727Z,33.95
2018-10-11T06:52:19.661Z,33.90
2018-10-11T06:52:57.729Z,33.84
2018-10-11T06:53:35.694Z,33.73
2018-10-11T06:54:13.629Z,33.67
2018-10-11T06:54:51.901Z,33.62
2018-10-11T06:55:29.856Z,33.58
2018-10-11T06:56:07.843Z,33.56
2018-10-11T06:56:45.854Z,33.52
2018-10-11T06:57:23.875Z,33.48
2018-10-11T06:58:01.823Z,33.39
2018-10-11T06:58:39.661Z,33.37
2018-10-11T06:59:17.608Z,33.28
2018-10-11T06:59:55.782Z,33.28
2018-10-11T07:00:33.696Z,33.27
2018-10-11T07:01:12.865Z,33.24
2018-10-11T07:01:50.969Z,33.16
2018-10-11T07:02:28.979Z,33.18
2018-10-11T07:03:07.126Z,33.12
2018-10-11T07:03:45.212Z,33.13
2018-10-11T07:04:23.058Z,33.10
2018-10-11T07:05:01.087Z,33.11
2018-10-11T07:05:38.957Z,33.14
2018-10-11T07:06:17.121Z,33.16
2018-10-11T07:06:55.050Z,33.19
2018-10-11T07:07:32.901Z,33.15
2018-10-11T07:08:10.743Z,33.16
2018-10-11T07:08:48.700Z,33.16
2018-10-11T07:09:26.605Z,33.11
2018-10-11T07:10:04.523Z,33.14
2018-10-11T07:10:42.502Z,33.11
2018-10-11T07:11:24.948Z,33.09
2018-10-11T07:12:02.988Z,32.94
2018-10-11T07:12:41.135Z,32.88
2018-10-11T07:13:19.016Z,32.83
2018-10-11T07:13:56.990Z,32.75
2018-10-11T07:14:34.893Z,32.67
2018-10-11T07:15:12.835Z,32.63
2018-10-11T07:15:50.744Z,32.57
2018-10-11T07:16:28.675Z,32.54
2018-10-11T07:17:06.533Z,32.50
2018-10-11T07:17:44.391Z,32.49
2018-10-11T07:18:22.291Z,32.38
2018-10-11T07:19:00.223Z,32.32
2018-10-11T07:19:39.400Z,32.20
2018-10-11T07:20:17.478Z,32.13
2018-10-11T07:20:55.409Z,32.09
2018-10-11T07:21:34.313Z,32.07
2018-10-11T07:22:12.109Z,32.01
2018-10-11T07:22:50.028Z,31.95
2018-10-11T07:23:27.919Z,31.97
2018-10-11T07:24:05.846Z,31.91
2018-10-11T07:24:43.671Z,31.85
2018-10-11T07:25:21.737Z,31.87
2018-10-11T07:25:59.695Z,31.84
2018-10-11T07:26:38.036Z,31.82
2018-10-11T07:27:15.938Z,31.81
2018-10-11T07:27:53.882Z,31.82
2018-10-11T07:28:31.720Z,31.79
2018-10-11T07:29:09.569Z,31.75
2018-10-11T07:29:47.522Z,31.75
2018-10-11T07:30:25.677Z,31.67
2018-10-11T07:31:03.582Z,31.69
2018-10-11T07:31:41.381Z,31.66
2018-10-11T07:32:19.240Z,31.70
2018-10-11T07:32:57.383Z,31.71
2018-10-11T07:33:35.388Z,31.71
2018-10-11T07:34:13.361Z,31.69
2018-10-11T07:34:51.327Z,31.65
2018-10-11T07:35:29.574Z,31.65
2018-10-11T07:36:07.683Z,31.62
2018-10-11T07:36:45.597Z,31.57
2018-10-11T07:37:23.468Z,31.55
2018-10-11T07:38:01.429Z,31.55
2018-10-11T07:38:39.376Z,31.48
2018-10-11T07:39:17.276Z,31.52
2018-10-11T07:39:55.138Z,31.46
2018-10-11T07:40:33.285Z,31.47
2018-10-11T07:41:11.716Z,31.43
2018-10-11T07:41:49.549Z,31.43
2018-10-11T07:42:27.466Z,31.45
2018-10-11T07:43:05.318Z,31.46
2018-10-11T07:43:43.260Z,31.43
2018-10-11T07:44:21.241Z,31.44
2018-10-11T07:44:59.121Z,31.45
2018-10-11T07:45:37.175Z,31.48
2018-10-11T07:46:15.089Z,31.44
2018-10-11T07:46:53.011Z,31.41
2018-10-11T07:47:30.874Z,31.36
2018-10-11T07:48:08.794Z,31.34
2018-10-11T07:48:46.879Z,31.34
2018-10-11T07:49:24.842Z,31.31
2018-10-11T07:50:02.764Z,31.29
2018-10-11T07:50:40.621Z,31.28
2018-10-11T07:51:18.552Z,31.25
2018-10-11T07:51:56.475Z,31.25
2018-10-11T07:52:34.417Z,31.25
2018-10-11T07:53:12.367Z,31.25
2018-10-11T07:53:50.230Z,31.26
2018-10-11T07:54:34.773Z,31.23
2018-10-11T07:55:12.654Z,31.23
2018-10-11T07:55:50.561Z,31.24
2018-10-11T07:56:28.392Z,31.27
2018-10-11T07:57:06.616Z,31.25
2018-10-11T07:57:44.484Z,31.19
2018-10-11T07:58:22.517Z,31.22
2018-10-11T07:59:01.104Z,31.22
2018-10-11T07:59:39.039Z,31.21
2018-10-11T08:00:16.983Z,31.19
2018-10-11T08:00:54.828Z,31.17
2018-10-11T08:01:33.346Z,31.14
2018-10-11T08:02:11.387Z,31.11
2018-10-11T08:02:49.229Z,31.10
2018-10-11T08:03:27.252Z,31.05
2018-10-11T08:04:05.346Z,30.99
2018-10-11T08:04:43.430Z,30.97
2018-10-11T08:05:21.301Z,30.99
2018-10-11T08:05:59.258Z,30.99
2018-10-11T08:06:37.213Z,31.02
2018-10-11T08:07:15.233Z,31.04
2018-10-11T08:07:53.346Z,31.05
2018-10-11T08:08:31.343Z,31.07
2018-10-11T08:09:10.794Z,31.11
2018-10-11T08:09:48.841Z,31.15
2018-10-11T08:10:26.772Z,31.16
2018-10-11T08:11:05.108Z,31.17
2018-10-11T08:11:42.999Z,31.21
2018-10-11T08:12:21.176Z,31.23
2018-10-11T08:12:59.114Z,31.25
2018-10-11T08:13:37.044Z,31.23
2018-10-11T08:14:15.163Z,31.24
2018-10-11T08:14:53.079Z,31.23
2018-10-11T08:15:31.077Z,31.23
2018-10-11T08:16:09.597Z,31.26
2018-10-11T08:16:47.667Z,31.26
2018-10-11T08:17:25.765Z,31.22
2018-10-11T08:18:03.865Z,31.23
2018-10-11T08:18:41.726Z,31.23
2018-10-11T08:19:19.999Z,31.24
2018-10-11T08:19:57.813Z,31.21
2018-10-11T08:20:35.890Z,31.25
2018-10-11T08:21:13.941Z,31.21
2018-10-11T08:21:52.097Z,31.25
2018-10-11T08:22:30.145Z,31.26